createdAt,value
2022-08-12T00:01:01.834Z,15.913086
2022-08-12T00:02:11.514Z,15.84259
2022-08-12T00:03:20.717Z,15.83252
2022-08-12T00:04:28.839Z,15.83252
2022-08-12T00:05:38.557Z,15.83252
2022-08-12T00:06:49.277Z,15.83252
2022-08-12T00:07:58.945Z,15.802307
2022-08-12T00:09:07.705Z,15.802307
2022-08-12T00:10:15.406Z,15.822449
2022-08-12T00:11:25.090Z,15.772095
2022-08-12T00:12:33.824Z,15.762024
2022-08-12T00:13:42.613Z,15.731812
2022-08-12T00:14:52.251Z,15.701599
2022-08-12T00:15:59.940Z,15.681458
2022-08-12T00:17:09.648Z,15.681458
2022-08-12T00:18:18.428Z,15.651245
2022-08-12T00:19:26.081Z,15.641174
2022-08-12T00:20:35.754Z,15.621033
2022-08-12T00:21:43.437Z,15.59082
2022-08-12T00:22:53.135Z,15.58075
2022-08-12T00:24:01.803Z,15.58075
2022-08-12T00:25:11.442Z,15.570679
2022-08-12T00:26:24.351Z,15.58075
2022-08-12T00:27:43.332Z,15.59082
2022-08-12T00:28:41.470Z,15.59082
2022-08-12T00:29:51.197Z,15.621033
2022-08-12T00:30:58.858Z,15.58075
2022-08-12T00:32:08.498Z,15.520325
2022-08-12T00:33:19.152Z,15.520325
2022-08-12T00:34:27.795Z,15.490112
2022-08-12T00:35:37.458Z,15.4599
2022-08-12T00:36:47.925Z,15.389404
2022-08-12T00:37:57.784Z,15.349121
2022-08-12T00:39:07.463Z,15.238342
2022-08-12T00:40:15.122Z,15.187988
2022-08-12T00:41:24.829Z,15.147705
2022-08-12T00:42:34.508Z,15.107422
2022-08-12T00:43:42.160Z,15.097351
2022-08-12T00:44:50.829Z,15.097351
2022-08-12T00:45:59.503Z,15.097351
2022-08-12T00:47:08.217Z,15.097351
2022-08-12T00:48:18.970Z,15.097351
2022-08-12T00:49:27.827Z,15.097351
2022-08-12T00:50:36.783Z,15.107422
2022-08-12T00:51:46.448Z,15.137634
2022-08-12T00:52:54.204Z,15.137634
2022-08-12T00:54:03.936Z,15.167847
2022-08-12T00:55:13.691Z,15.187988
2022-08-12T00:56:23.389Z,15.218201
2022-08-12T00:57:33.048Z,15.268555
2022-08-12T00:58:41.726Z,15.278625
2022-08-12T00:59:51.428Z,15.278625
2022-08-12T01:01:00.131Z,15.328979
2022-08-12T01:02:10.857Z,15.328979
2022-08-12T01:03:18.366Z,15.328979
2022-08-12T01:04:28.085Z,15.308838
2022-08-12T01:05:37.752Z,15.268555
2022-08-12T01:06:46.459Z,15.248413
2022-08-12T01:07:56.087Z,15.20813
2022-08-12T01:09:05.782Z,15.167847
2022-08-12T01:10:14.496Z,15.067139
2022-08-12T01:11:25.138Z,14.996643
2022-08-12T01:12:34.886Z,14.885864
2022-08-12T01:13:42.498Z,14.805298
2022-08-12T01:14:52.174Z,14.734802
2022-08-12T01:16:00.852Z,14.634094
2022-08-12T01:17:08.528Z,14.593811
2022-08-12T01:18:18.216Z,14.513245
2022-08-12T01:19:25.892Z,14.45282
2022-08-12T01:20:34.575Z,14.402466
2022-08-12T01:21:44.284Z,14.352112
2022-08-12T01:22:52.952Z,14.301758
2022-08-12T01:24:23.178Z,14.291687
2022-08-12T01:25:12.243Z,14.261475
2022-08-12T01:26:20.883Z,14.20105
2022-08-12T01:27:29.624Z,14.221191
2022-08-12T01:28:37.314Z,14.231262
2022-08-12T01:29:46.967Z,14.221191
2022-08-12T01:30:56.675Z,14.20105
2022-08-12T01:32:06.485Z,14.180908
2022-08-12T01:33:16.070Z,14.170837
2022-08-12T01:34:33.402Z,14.150696
2022-08-12T01:35:36.412Z,14.170837
2022-08-12T01:36:47.113Z,14.150696
2022-08-12T01:37:56.800Z,14.20105
2022-08-12T01:39:06.513Z,14.20105
2022-08-12T01:40:31.906Z,14.261475
2022-08-12T01:41:26.834Z,14.291687
2022-08-12T01:42:36.542Z,14.291687
2022-08-12T01:43:46.234Z,14.291687
2022-08-12T01:44:55.938Z,14.291687
2022-08-12T01:46:05.662Z,14.261475
2022-08-12T01:47:13.332Z,14.251404
2022-08-12T01:48:22.002Z,14.251404
2022-08-12T01:49:31.696Z,14.231262
2022-08-12T01:50:39.413Z,14.231262
2022-08-12T01:52:16.327Z,14.180908
2022-08-12T01:52:59.782Z,14.150696
2022-08-12T01:54:09.447Z,14.150696
2022-08-12T01:55:19.121Z,14.170837
2022-08-12T01:56:26.826Z,14.170837
2022-08-12T01:57:57.456Z,14.20105
2022-08-12T01:58:47.282Z,14.20105
2022-08-12T01:59:55.955Z,14.221191
2022-08-12T02:01:05.765Z,14.20105
2022-08-12T02:02:14.411Z,14.140625
2022-08-12T02:03:23.114Z,14.110413
2022-08-12T02:04:31.797Z,14.049988
2022-08-12T02:05:39.470Z,14.039917
2022-08-12T02:06:48.176Z,14.029846
2022-08-12T02:07:57.854Z,13.989563
2022-08-12T02:09:05.516Z,13.959351
2022-08-12T02:10:49.603Z,13.929138
2022-08-12T02:11:25.899Z,13.898926
2022-08-12T02:12:33.591Z,13.898926
2022-08-12T02:13:49.361Z,13.898926
2022-08-12T02:14:52.922Z,13.888855
2022-08-12T02:16:02.551Z,13.919067
2022-08-12T02:17:12.214Z,13.898926
2022-08-12T02:18:22.883Z,13.898926
2022-08-12T02:19:32.597Z,13.919067
2022-08-12T02:20:50.961Z,13.919067
2022-08-12T02:21:52.922Z,13.94928
2022-08-12T02:23:03.565Z,13.94928
2022-08-12T02:24:11.235Z,13.898926
2022-08-12T02:25:20.011Z,13.868713
2022-08-12T02:26:29.663Z,13.82843
2022-08-12T02:27:38.388Z,13.808289
2022-08-12T02:28:48.044Z,13.768005
2022-08-12T02:29:56.706Z,13.768005
2022-08-12T02:31:05.403Z,13.737793
2022-08-12T02:32:15.202Z,13.717651
2022-08-12T02:33:22.886Z,13.717651
2022-08-12T02:34:31.619Z,13.69751
2022-08-12T02:35:41.293Z,13.677368
2022-08-12T02:36:50.009Z,13.667297
2022-08-12T02:37:59.795Z,13.647156
2022-08-12T02:39:09.453Z,13.586731
2022-08-12T02:40:20.186Z,13.526306
2022-08-12T02:41:29.886Z,13.486023
2022-08-12T02:42:37.550Z,13.435669
2022-08-12T02:43:47.224Z,13.365173
2022-08-12T02:44:56.886Z,13.365173
2022-08-12T02:46:04.562Z,13.284607
2022-08-12T02:47:18.210Z,13.234253
2022-08-12T02:48:24.864Z,13.19397
2022-08-12T02:49:32.531Z,13.19397
2022-08-12T02:50:42.225Z,13.19397
2022-08-12T02:51:50.942Z,13.19397
2022-08-12T02:52:59.634Z,13.163757
2022-08-12T02:54:09.320Z,13.163757
2022-08-12T02:55:29.016Z,13.19397
2022-08-12T02:56:26.634Z,13.183899
2022-08-12T02:57:35.290Z,13.234253
2022-08-12T02:58:45.222Z,13.345032
2022-08-12T02:59:53.652Z,13.435669
2022-08-12T03:01:01.419Z,13.496094
2022-08-12T03:02:11.048Z,13.516235
2022-08-12T03:03:19.728Z,13.566589
2022-08-12T03:04:28.381Z,13.566589
2022-08-12T03:05:44.053Z,13.526306
2022-08-12T03:06:48.738Z,13.455811
2022-08-12T03:07:59.889Z,13.405457
2022-08-12T03:09:09.347Z,13.334961
2022-08-12T03:10:26.037Z,13.304749
2022-08-12T03:11:28.566Z,13.254395
2022-08-12T03:12:40.112Z,13.234253
2022-08-12T03:13:48.848Z,13.224182
2022-08-12T03:14:58.504Z,13.204041
2022-08-12T03:16:06.252Z,13.204041
2022-08-12T03:17:15.950Z,13.234253
2022-08-12T03:18:27.322Z,13.274536
2022-08-12T03:19:32.320Z,13.274536
2022-08-12T03:20:42.989Z,13.274536
2022-08-12T03:21:52.397Z,13.284607
2022-08-12T03:23:00.371Z,13.284607
2022-08-12T03:24:10.078Z,13.334961
2022-08-12T03:25:17.774Z,13.314819
2022-08-12T03:26:27.440Z,13.375244
2022-08-12T03:27:36.109Z,13.365173
2022-08-12T03:28:43.893Z,13.375244
2022-08-12T03:29:53.575Z,13.375244
2022-08-12T03:31:01.245Z,13.385315
2022-08-12T03:32:09.932Z,13.405457
2022-08-12T03:33:20.575Z,13.435669
2022-08-12T03:34:28.273Z,13.465881
2022-08-12T03:35:40.790Z,13.465881
2022-08-12T03:36:47.611Z,13.415527
2022-08-12T03:37:57.270Z,13.345032
2022-08-12T03:39:07.931Z,13.274536
2022-08-12T03:40:14.706Z,13.234253
2022-08-12T03:41:24.341Z,13.153687
2022-08-12T03:42:34.511Z,13.093262
2022-08-12T03:43:41.741Z,13.052979
2022-08-12T03:44:51.457Z,13.012695
2022-08-12T03:46:00.163Z,12.972412
2022-08-12T03:47:07.882Z,12.911987
2022-08-12T03:48:18.862Z,12.851562
2022-08-12T03:49:26.285Z,12.791138
2022-08-12T03:50:34.901Z,12.750854
2022-08-12T03:51:44.580Z,12.720642
2022-08-12T03:52:52.228Z,12.680359
2022-08-12T03:54:02.068Z,12.680359
2022-08-12T03:55:11.725Z,12.670288
2022-08-12T03:56:19.381Z,12.640076
2022-08-12T03:57:29.050Z,12.640076
2022-08-12T03:58:36.779Z,12.599792
2022-08-12T03:59:45.391Z,12.579651
2022-08-12T04:00:55.122Z,12.549438
2022-08-12T04:02:03.716Z,12.539368
2022-08-12T04:03:13.434Z,12.529297
2022-08-12T04:04:23.086Z,12.489014
2022-08-12T04:05:32.901Z,12.44873
2022-08-12T04:06:42.379Z,12.44873
2022-08-12T04:07:51.247Z,12.539368
2022-08-12T04:08:59.698Z,12.609863
2022-08-12T04:10:10.363Z,12.650146
2022-08-12T04:11:19.153Z,12.750854
2022-08-12T04:12:29.908Z,12.851562
2022-08-12T04:13:38.518Z,12.952271
2022-08-12T04:14:47.233Z,13.052979
2022-08-12T04:15:56.930Z,13.153687
2022-08-12T04:17:04.605Z,13.254395
2022-08-12T04:18:14.269Z,13.375244
2022-08-12T04:19:23.928Z,13.496094
2022-08-12T04:20:32.630Z,13.596802
2022-08-12T04:22:01.023Z,13.69751
2022-08-12T04:22:52.975Z,13.778076
2022-08-12T04:24:00.635Z,13.858643
2022-08-12T04:25:10.320Z,13.888855
2022-08-12T04:26:19.008Z,13.94928
2022-08-12T04:27:27.650Z,13.969421
2022-08-12T04:28:37.325Z,13.999634
2022-08-12T04:30:17.338Z,14.049988
2022-08-12T04:30:55.595Z,14.070129
2022-08-12T04:32:04.391Z,14.0802
2022-08-12T04:33:12.061Z,14.0802
2022-08-12T04:34:21.724Z,14.110413
2022-08-12T04:35:29.431Z,14.120483
2022-08-12T04:36:38.122Z,14.120483
2022-08-12T04:37:57.783Z,14.140625
2022-08-12T04:38:59.725Z,14.140625
2022-08-12T04:40:08.139Z,14.150696
2022-08-12T04:41:15.776Z,14.221191
2022-08-12T04:42:23.596Z,14.251404
2022-08-12T04:43:53.670Z,14.251404
2022-08-12T04:44:42.910Z,14.231262
2022-08-12T04:45:52.558Z,14.251404
2022-08-12T04:47:02.210Z,14.261475
2022-08-12T04:48:10.871Z,14.281616
2022-08-12T04:49:20.537Z,14.291687
2022-08-12T04:50:35.587Z,14.301758
2022-08-12T04:51:38.874Z,14.33197
2022-08-12T04:52:49.508Z,14.402466
2022-08-12T04:53:58.182Z,14.45282
2022-08-12T04:55:06.852Z,14.513245
2022-08-12T04:56:14.507Z,14.543457
2022-08-12T04:57:24.154Z,14.603882
2022-08-12T04:58:33.830Z,14.654236
2022-08-12T04:59:43.771Z,14.694519
2022-08-12T05:00:51.118Z,14.70459
2022-08-12T05:01:59.852Z,14.734802
2022-08-12T05:03:10.550Z,14.765015
2022-08-12T05:04:20.216Z,14.775085
2022-08-12T05:05:29.540Z,14.775085
2022-08-12T05:06:37.528Z,14.765015
2022-08-12T05:07:54.012Z,14.805298
2022-08-12T05:08:56.879Z,14.845581
2022-08-12T05:10:06.597Z,14.885864
2022-08-12T05:11:15.245Z,14.906006
2022-08-12T05:12:23.920Z,14.936218
2022-08-12T05:13:32.588Z,14.95636
2022-08-12T05:14:41.257Z,14.966431
2022-08-12T05:16:02.712Z,15.026855
2022-08-12T05:17:01.657Z,15.08728
2022-08-12T05:18:16.801Z,15.137634
2022-08-12T05:19:22.476Z,15.167847
2022-08-12T05:20:29.837Z,15.20813
2022-08-12T05:21:38.313Z,15.248413
2022-08-12T05:22:47.986Z,15.268555
2022-08-12T05:23:58.681Z,15.278625
2022-08-12T05:25:07.340Z,15.328979
2022-08-12T05:26:18.007Z,15.399475
2022-08-12T05:27:25.653Z,15.469971
2022-08-12T05:28:35.317Z,15.510254
2022-08-12T05:30:05.992Z,15.540466
2022-08-12T05:30:54.631Z,15.570679
2022-08-12T05:32:04.313Z,15.58075
2022-08-12T05:33:11.969Z,15.59082
2022-08-12T05:34:23.823Z,15.570679
2022-08-12T05:35:30.413Z,15.550537
2022-08-12T05:36:38.087Z,15.59082
2022-08-12T05:37:47.805Z,15.621033
2022-08-12T05:38:56.481Z,15.651245
2022-08-12T05:40:08.487Z,15.641174
2022-08-12T05:41:13.963Z,15.641174
2022-08-12T05:42:22.789Z,15.671387
2022-08-12T05:43:32.439Z,15.671387
2022-08-12T05:44:41.107Z,15.681458
2022-08-12T05:45:48.772Z,15.681458
2022-08-12T05:46:57.434Z,15.701599
2022-08-12T05:48:06.090Z,15.671387
2022-08-12T05:49:14.777Z,15.701599
2022-08-12T05:50:24.462Z,15.701599
2022-08-12T05:51:40.025Z,15.701599
2022-08-12T05:52:42.848Z,15.751953
2022-08-12T05:53:53.554Z,15.792236
2022-08-12T05:55:02.215Z,15.802307
2022-08-12T05:56:11.875Z,15.862732
2022-08-12T05:57:20.527Z,15.923157
2022-08-12T05:58:28.211Z,15.953369
2022-08-12T05:59:37.869Z,15.983582
2022-08-12T06:00:45.523Z,16.044006
2022-08-12T06:02:08.406Z,16.124573
2022-08-12T06:03:05.025Z,16.205139
2022-08-12T06:04:12.628Z,16.285706
2022-08-12T06:05:22.378Z,16.34613
2022-08-12T06:06:33.750Z,16.386414
2022-08-12T06:08:00.990Z,16.46698
2022-08-12T06:08:52.484Z,16.527405
2022-08-12T06:10:00.190Z,16.557617
2022-08-12T06:11:08.935Z,16.638184
2022-08-12T06:12:18.626Z,16.708679
2022-08-12T06:13:28.809Z,16.748962
2022-08-12T06:14:37.677Z,16.8396
2022-08-12T06:15:46.694Z,16.910095
2022-08-12T06:16:54.320Z,17.041016
2022-08-12T06:18:04.073Z,17.192078
2022-08-12T06:19:14.684Z,17.312927
2022-08-12T06:20:28.484Z,17.413635
2022-08-12T06:21:34.027Z,17.463989
2022-08-12T06:22:42.668Z,17.564697
2022-08-12T06:23:53.350Z,17.625122
2022-08-12T06:25:02.017Z,17.665405
2022-08-12T06:26:09.711Z,17.695618
2022-08-12T06:27:19.431Z,17.776184
2022-08-12T06:28:27.076Z,17.85675
2022-08-12T06:30:07.635Z,17.917175
2022-08-12T06:30:53.028Z,17.997742
2022-08-12T06:31:57.024Z,18.038025
2022-08-12T06:33:21.283Z,18.09845
2022-08-12T06:35:22.861Z,18.179016
2022-08-12T06:35:46.943Z,18.259583
2022-08-12T06:36:38.780Z,18.370361
2022-08-12T06:37:50.402Z,18.471069
2022-08-12T06:38:59.089Z,18.531494
2022-08-12T06:40:09.774Z,18.581848
2022-08-12T06:41:19.383Z,18.632202
2022-08-12T06:42:41.977Z,18.712769
2022-08-12T06:44:05.366Z,18.773193
2022-08-12T06:44:49.400Z,18.883972
2022-08-12T06:45:58.081Z,18.964539
2022-08-12T06:47:05.839Z,19.085388
2022-08-12T06:48:14.647Z,19.176025
2022-08-12T06:49:24.327Z,19.286804
2022-08-12T06:50:33.906Z,19.367371
2022-08-12T06:51:41.646Z,19.468079
2022-08-12T06:52:52.324Z,19.578857
2022-08-12T06:54:01.978Z,19.689636
2022-08-12T06:55:11.658Z,19.810486
2022-08-12T06:56:19.362Z,19.941406
2022-08-12T06:57:57.726Z,20.042114
2022-08-12T06:58:40.646Z,20.183105
2022-08-12T06:59:49.353Z,20.314026
2022-08-12T07:00:59.149Z,20.434875
2022-08-12T07:02:07.782Z,20.555725
2022-08-12T07:03:23.461Z,20.656433
2022-08-12T07:04:36.620Z,20.777283
2022-08-12T07:05:37.779Z,20.918274
2022-08-12T07:06:47.469Z,21.029053
2022-08-12T07:07:56.315Z,21.139832
2022-08-12T07:09:07.005Z,21.220398
2022-08-12T07:10:17.684Z,21.361389
2022-08-12T07:11:25.326Z,21.462097
2022-08-12T07:12:35.017Z,21.582947
2022-08-12T07:14:02.770Z,21.693726
2022-08-12T07:14:54.492Z,21.774292
2022-08-12T07:16:04.203Z,21.885071
2022-08-12T07:17:11.876Z,22.015991
2022-08-12T07:18:21.606Z,22.167053
2022-08-12T07:19:39.655Z,22.25769
2022-08-12T07:20:52.927Z,22.37854
2022-08-12T07:21:55.740Z,22.529602
2022-08-12T07:23:03.300Z,22.660522
2022-08-12T07:24:14.013Z,22.731018
2022-08-12T07:25:23.820Z,22.851868
2022-08-12T07:26:32.523Z,22.962646
2022-08-12T07:27:42.300Z,23.083496
2022-08-12T07:28:50.963Z,23.153992
2022-08-12T07:30:04.476Z,23.13385
2022-08-12T07:31:09.521Z,23.214417
2022-08-12T07:32:18.222Z,23.305054
2022-08-12T07:33:28.934Z,23.315125
2022-08-12T07:34:38.611Z,23.395691
2022-08-12T07:35:46.371Z,23.456116
2022-08-12T07:36:56.057Z,23.587036
2022-08-12T07:38:06.804Z,23.687744
2022-08-12T07:39:15.495Z,23.768311
2022-08-12T07:40:25.131Z,23.838806
2022-08-12T07:41:33.830Z,23.949585
2022-08-12T07:42:41.833Z,24.030151
2022-08-12T07:43:51.322Z,24.14093
2022-08-12T07:45:00.078Z,24.26178
2022-08-12T07:46:08.748Z,24.382629
2022-08-12T07:47:18.446Z,24.533691
2022-08-12T07:48:28.155Z,24.664612
2022-08-12T07:50:03.820Z,24.735107
2022-08-12T07:50:48.491Z,24.805603
2022-08-12T07:51:57.152Z,24.855957
2022-08-12T07:53:06.844Z,24.946594
2022-08-12T07:54:15.529Z,25.027161
2022-08-12T07:55:24.238Z,25.107727
2022-08-12T07:56:33.909Z,25.127869
2022-08-12T07:57:42.574Z,25.208435
2022-08-12T07:58:52.267Z,25.309143
2022-08-12T08:00:01.988Z,25.178223
2022-08-12T08:01:11.776Z,25.168152
2022-08-12T08:02:22.383Z,25.248718
2022-08-12T08:03:31.014Z,25.258789
2022-08-12T08:04:40.663Z,25.349426
2022-08-12T08:05:50.401Z,25.39978
2022-08-12T08:06:59.080Z,25.500488
2022-08-12T08:08:07.819Z,25.440063
2022-08-12T08:09:17.511Z,25.510559
2022-08-12T08:10:27.357Z,25.550842
2022-08-12T08:11:37.078Z,25.65155
2022-08-12T08:12:45.836Z,25.65155
2022-08-12T08:13:55.520Z,25.601196
2022-08-12T08:15:05.186Z,25.65155
2022-08-12T08:16:12.901Z,25.691833
2022-08-12T08:17:22.733Z,25.722046
2022-08-12T08:18:31.451Z,25.631409
2022-08-12T08:19:48.621Z,25.7724
2022-08-12T08:20:51.739Z,25.832825
2022-08-12T08:21:59.402Z,25.963745
2022-08-12T08:23:09.248Z,26.094666
2022-08-12T08:24:18.910Z,26.15509
2022-08-12T08:25:35.553Z,26.14502
2022-08-12T08:26:37.246Z,25.963745
2022-08-12T08:27:46.896Z,25.591125
2022-08-12T08:28:54.593Z,25.39978
2022-08-12T08:30:04.435Z,25.228577
2022-08-12T08:31:14.113Z,24.986877
2022-08-12T08:32:22.860Z,24.926453
2022-08-12T08:34:01.258Z,24.916382
2022-08-12T08:34:53.225Z,25.007019
2022-08-12T08:35:54.544Z,25.208435
2022-08-12T08:37:03.961Z,25.39978
2022-08-12T08:38:13.215Z,25.581055
2022-08-12T08:39:23.988Z,25.782471
2022-08-12T08:40:32.682Z,26.02417
2022-08-12T08:42:13.580Z,26.134949
2022-08-12T08:42:52.993Z,26.326294
2022-08-12T08:44:00.675Z,26.557922
2022-08-12T08:45:10.316Z,26.729126
2022-08-12T08:46:20.014Z,26.77948
2022-08-12T08:47:28.666Z,26.799622
2022-08-12T08:48:38.333Z,26.77948
2022-08-12T08:49:45.980Z,26.839905
2022-08-12T08:50:56.613Z,26.90033
2022-08-12T08:52:04.295Z,26.970825
2022-08-12T08:53:12.947Z,27.051392
2022-08-12T08:54:22.655Z,27.101746
2022-08-12T08:55:48.201Z,27.182312
2022-08-12T08:56:41.937Z,27.293091
2022-08-12T08:57:52.598Z,27.353516
2022-08-12T08:59:00.277Z,27.303162
2022-08-12T09:00:09.949Z,27.373657
2022-08-12T09:01:19.591Z,27.353516
2022-08-12T09:02:30.227Z,27.363586
2022-08-12T09:04:21.825Z,27.373657
2022-08-12T09:05:10.640Z,27.363586
2022-08-12T09:06:02.705Z,27.363586
2022-08-12T09:07:17.512Z,27.494507
2022-08-12T09:08:26.734Z,27.575073
2022-08-12T09:09:34.085Z,27.474365
2022-08-12T09:10:45.092Z,27.454224
2022-08-12T09:12:07.753Z,27.363586
2022-08-12T09:13:03.098Z,27.373657
2022-08-12T09:14:18.904Z,27.474365
2022-08-12T09:15:23.395Z,27.554932
2022-08-12T09:16:37.962Z,27.585144
2022-08-12T09:17:43.856Z,27.595215
2022-08-12T09:18:53.483Z,27.645569
2022-08-12T09:20:01.181Z,27.705994
2022-08-12T09:21:10.045Z,27.494507
2022-08-12T09:22:18.862Z,27.262878
2022-08-12T09:23:58.275Z,27.121887
2022-08-12T09:24:39.013Z,26.990967
2022-08-12T09:25:48.367Z,26.90033
2022-08-12T09:26:56.465Z,26.849976
2022-08-12T09:28:06.225Z,26.809692
2022-08-12T09:29:15.787Z,26.829834
2022-08-12T09:30:41.465Z,26.839905
2022-08-12T09:32:04.559Z,26.698914
2022-08-12T09:32:56.878Z,26.618347
2022-08-12T09:34:25.049Z,26.437073
2022-08-12T09:35:18.389Z,26.27594
2022-08-12T09:36:30.565Z,26.215515
2022-08-12T09:37:52.947Z,26.14502
2022-08-12T09:38:58.632Z,26.15509
2022-08-12T09:40:00.729Z,26.185303
2022-08-12T09:42:10.097Z,26.074524
2022-08-12T09:42:35.453Z,26.004028
2022-08-12T09:43:23.692Z,25.883179
2022-08-12T09:44:38.748Z,25.832825
2022-08-12T09:46:05.675Z,25.782471
2022-08-12T09:46:52.526Z,25.802612
2022-08-12T09:48:02.179Z,25.7724
2022-08-12T09:49:13.344Z,25.722046
2022-08-12T09:50:23.520Z,25.732117
2022-08-12T09:51:35.651Z,25.802612
2022-08-12T09:52:41.918Z,25.832825
2022-08-12T09:54:05.756Z,25.782471
2022-08-12T09:55:02.551Z,25.691833
2022-08-12T09:56:57.778Z,25.591125
2022-08-12T09:58:08.527Z,25.500488
2022-08-12T09:58:51.160Z,25.480347
2022-08-12T10:00:14.371Z,25.39978
2022-08-12T10:00:54.557Z,25.319214
2022-08-12T10:02:43.543Z,25.127869
2022-08-12T10:03:31.674Z,25.107727
2022-08-12T10:04:26.514Z,25.178223
2022-08-12T10:06:11.933Z,25.289001
2022-08-12T10:06:48.726Z,25.178223
2022-08-12T10:07:57.431Z,25.168152
2022-08-12T10:09:08.072Z,25.178223
2022-08-12T10:10:23.147Z,25.218506
2022-08-12T10:11:27.433Z,25.289001
2022-08-12T10:12:37.080Z,25.409851
2022-08-12T10:13:47.827Z,25.480347
2022-08-12T10:14:57.442Z,25.510559
2022-08-12T10:16:07.120Z,25.591125
2022-08-12T10:17:16.843Z,25.591125
2022-08-12T10:18:26.523Z,25.470276
2022-08-12T10:19:37.056Z,25.480347
2022-08-12T10:20:45.896Z,25.530701
2022-08-12T10:21:56.573Z,25.510559
2022-08-12T10:23:04.249Z,25.510559
2022-08-12T10:24:14.034Z,25.510559
2022-08-12T10:25:23.700Z,25.631409
2022-08-12T10:26:38.949Z,25.722046
2022-08-12T10:28:04.296Z,25.883179
2022-08-12T10:29:02.301Z,26.004028
2022-08-12T10:30:39.199Z,26.215515
2022-08-12T10:31:17.044Z,26.40686
2022-08-12T10:32:40.602Z,26.618347
2022-08-12T10:33:43.695Z,26.799622
2022-08-12T10:34:53.318Z,26.890259
2022-08-12T10:35:57.596Z,27.001038
2022-08-12T10:37:10.804Z,27.101746
2022-08-12T10:38:32.874Z,27.182312
2022-08-12T10:40:02.374Z,27.363586
2022-08-12T10:40:39.376Z,27.645569
2022-08-12T10:41:56.607Z,27.867126
2022-08-12T10:43:00.441Z,27.867126
2022-08-12T10:44:09.204Z,27.897339
2022-08-12T10:45:18.299Z,28.018188
2022-08-12T10:46:30.749Z,28.098755
2022-08-12T10:48:01.508Z,28.199463
2022-08-12T10:48:55.834Z,28.16925
2022-08-12T10:50:02.032Z,28.108826
2022-08-12T10:51:52.081Z,28.259888
2022-08-12T10:52:33.644Z,28.511658
2022-08-12T10:53:44.613Z,28.562012
2022-08-12T10:54:42.365Z,28.572083
2022-08-12T10:55:55.633Z,28.572083
2022-08-12T10:57:02.669Z,28.632507
2022-08-12T10:58:28.554Z,28.692932
2022-08-12T10:59:39.098Z,28.763428
2022-08-12T11:00:45.405Z,28.854065
2022-08-12T11:04:14.886Z,28.843994
2022-08-12T11:04:21.005Z,28.934631
2022-08-12T11:04:21.486Z,28.813782
2022-08-12T11:07:02.192Z,28.703003
2022-08-12T11:07:04.714Z,28.602295
2022-08-12T11:08:33.275Z,28.723145
2022-08-12T11:08:49.178Z,28.843994
2022-08-12T11:10:01.174Z,29.005127
2022-08-12T11:11:09.711Z,29.04541
2022-08-12T11:12:36.279Z,29.125977
2022-08-12T11:13:39.886Z,29.186401
2022-08-12T11:14:48.715Z,29.035339
2022-08-12T11:16:03.146Z,29.035339
2022-08-12T11:17:03.817Z,29.005127
2022-08-12T11:18:11.725Z,29.136047
2022-08-12T11:19:22.408Z,29.317322
2022-08-12T11:20:31.013Z,29.307251
2022-08-12T11:21:57.302Z,29.317322
2022-08-12T11:22:55.332Z,29.347534
2022-08-12T11:23:59.481Z,29.266968
2022-08-12T11:25:11.170Z,29.256897
2022-08-12T11:26:19.832Z,29.377747
2022-08-12T11:27:29.669Z,29.468384
2022-08-12T11:28:38.719Z,29.569092
2022-08-12T11:30:02.651Z,29.790649
2022-08-12T11:30:59.592Z,29.841003
2022-08-12T11:32:07.258Z,29.790649
2022-08-12T11:33:24.281Z,29.750366
2022-08-12T11:34:52.356Z,29.911499
2022-08-12T11:35:37.409Z,30.122986
2022-08-12T11:36:46.828Z,30.314331
2022-08-12T11:37:57.819Z,30.213623
2022-08-12T11:39:06.122Z,30.062561
2022-08-12T11:41:28.295Z,30.05249
2022-08-12T11:42:35.283Z,30.274048
2022-08-12T11:43:50.025Z,30.324402
2022-08-12T11:44:56.442Z,30.284119
2022-08-12T11:46:06.160Z,30.163269
2022-08-12T11:47:16.810Z,30.163269
2022-08-12T11:48:26.619Z,30.133057
2022-08-12T11:49:36.152Z,30.274048
2022-08-12T11:50:44.816Z,30.102844
2022-08-12T11:51:57.714Z,30.082703
2022-08-12T11:53:03.169Z,29.981995
2022-08-12T11:54:14.838Z,29.861145
2022-08-12T11:55:23.490Z,29.810791
2022-08-12T11:56:38.014Z,29.609375
2022-08-12T11:58:09.206Z,29.528809
2022-08-12T12:01:16.723Z,29.357605
2022-08-12T12:02:00.682Z,28.964844
2022-08-12T12:02:26.623Z,29.015198
2022-08-12T12:03:40.386Z,29.226685
2022-08-12T12:04:44.918Z,29.41803
2022-08-12T12:05:54.580Z,29.720154
2022-08-12T12:07:06.934Z,29.951782
2022-08-12T12:08:36.794Z,30.243835
2022-08-12T12:09:23.609Z,30.404968
2022-08-12T12:10:34.292Z,30.566101
2022-08-12T12:11:48.788Z,30.606384
2022-08-12T12:12:54.598Z,30.727234
2022-08-12T12:14:05.654Z,30.697021
2022-08-12T12:15:14.926Z,30.8078
2022-08-12T12:16:25.718Z,30.908508
2022-08-12T12:17:38.264Z,30.908508
2022-08-12T12:18:46.068Z,30.848083
2022-08-12T12:19:55.782Z,30.898438
2022-08-12T12:21:05.488Z,31.05957
2022-08-12T12:22:15.651Z,31.210632
2022-08-12T12:23:28.926Z,31.281128
2022-08-12T12:24:34.444Z,31.069641
2022-08-12T12:25:59.804Z,30.989075
2022-08-12T12:26:59.484Z,31.119995
2022-08-12T12:28:03.920Z,31.029358
2022-08-12T12:30:14.424Z,31.220703
2022-08-12T12:30:26.994Z,31.522827
2022-08-12T12:32:07.064Z,31.331482
2022-08-12T12:32:44.097Z,31.240845
2022-08-12T12:33:58.486Z,31.099854
2022-08-12T12:35:13.299Z,31.05957
2022-08-12T12:36:20.104Z,31.0495
2022-08-12T12:37:27.084Z,31.240845
2022-08-12T12:38:34.436Z,31.361694
2022-08-12T12:39:54.637Z,31.522827
2022-08-12T12:40:55.777Z,31.472473
2022-08-12T12:42:42.367Z,31.371765
2022-08-12T12:43:17.091Z,31.422119
2022-08-12T12:44:30.409Z,31.31134
2022-08-12T12:45:38.503Z,31.391907
2022-08-12T12:46:47.159Z,31.643677
2022-08-12T12:47:56.790Z,31.835022
2022-08-12T12:49:06.869Z,32.076721
2022-08-12T12:50:34.960Z,32.137146
2022-08-12T12:51:49.611Z,32.177429
2022-08-12T12:52:37.488Z,32.157288
2022-08-12T12:54:07.374Z,32.217712
2022-08-12T12:54:57.841Z,32.489624
2022-08-12T12:56:05.572Z,32.489624
2022-08-12T12:57:14.280Z,32.217712
2022-08-12T12:58:24.899Z,31.714172
2022-08-12T12:59:55.772Z,31.150208
2022-08-12T13:00:49.989Z,30.535889
2022-08-12T13:01:52.948Z,30.122986
2022-08-12T13:03:01.546Z,29.810791
2022-08-12T13:04:13.747Z,29.498596
2022-08-12T13:05:27.670Z,29.16626
2022-08-12T13:06:30.773Z,28.753357
2022-08-12T13:07:49.197Z,28.441162
2022-08-12T13:08:50.893Z,28.471375
2022-08-12T13:10:01.920Z,28.864136
2022-08-12T13:11:11.180Z,29.317322
2022-08-12T13:12:18.856Z,29.589233
2022-08-12T13:14:08.305Z,29.941711
2022-08-12T13:14:39.776Z,30.193481
2022-08-12T13:15:47.934Z,30.505676
2022-08-12T13:16:58.566Z,30.989075
2022-08-12T13:18:07.086Z,31.462402